Time;durP1;ratioP1;P1;durP2;ratioP2;P2;SDS_P1;SDS_P2;PMS_P1;PMS_P2;Temp;Humidity;BMP_temperature;BMP_pressure;BME280_temperature;BME280_humidity;BME280_pressure;Samples;Min_cycle;Max_cycle;Signal;HPM_P1;HPM_P2
2022/09/01 00:01:09;;;;;;;1.85;0.30;;;15.80;93.10;;;;;;5069550;28;20035;-94
2022/09/01 00:03:35;;;;;;;1.25;0.30;;;15.80;93.30;;;;;;5064657;28;20031;-95
2022/09/01 00:06:02;;;;;;;3.03;0.30;;;15.70;93.40;;;;;;5072121;28;20136;-94
2022/09/01 00:08:28;;;;;;;1.08;0.40;;;15.70;93.60;;;;;;5054028;28;20028;-93
2022/09/01 00:10:54;;;;;;;2.10;0.30;;;15.60;93.80;;;;;;5071129;28;20554;-94
2022/09/01 00:13:19;;;;;;;1.88;0.32;;;15.60;94.00;;;;;;5071968;28;20446;-94
2022/09/01 00:15:45;;;;;;;0.68;0.30;;;15.60;94.10;;;;;;5069634;28;20033;-94
2022/09/01 00:18:11;;;;;;;1.52;0.50;;;15.60;94.30;;;;;;5065716;28;20035;-93
2022/09/01 00:20:36;;;;;;;1.90;0.38;;;15.50;94.50;;;;;;5069585;28;20448;-94
2022/09/01 00:23:02;;;;;;;2.13;0.30;;;15.50;94.70;;;;;;5070335;28;20024;-95
2022/09/01 00:25:27;;;;;;;1.80;0.38;;;15.50;94.90;;;;;;5075337;28;20052;-94
2022/09/01 00:27:54;;;;;;;1.25;0.38;;;15.50;95.10;;;;;;5074231;28;20135;-94
2022/09/01 00:30:20;;;;;;;2.58;0.63;;;15.50;95.20;;;;;;5072729;28;20024;-95
2022/09/01 00:32:58;;;;;;;0.60;0.20;;;15.50;95.40;;;;;;5074615;28;20040;-95
2022/09/01 00:35:23;;;;;;;1.60;0.30;;;15.50;95.50;;;;;;5075784;28;20021;-94
2022/09/01 00:37:49;;;;;;;2.70;0.40;;;15.50;95.70;;;;;;5069777;28;20481;-95
2022/09/01 00:40:18;;;;;;;1.92;0.47;;;15.40;95.80;;;;;;5074242;28;20028;-94
2022/09/01 00:42:45;;;;;;;2.20;0.40;;;15.40;96.00;;;;;;5075076;28;20021;-94
2022/09/01 00:45:10;;;;;;;3.20;0.47;;;15.40;96.10;;;;;;5075029;28;20085;-95
2022/09/01 00:47:37;;;;;;;1.70;0.40;;;15.40;96.20;;;;;;5084789;28;20140;-94
2022/09/01 00:50:06;;;;;;;1.85;0.30;;;15.50;96.40;;;;;;5078212;28;20029;-94
2022/09/01 00:52:37;;;;;;;1.98;0.40;;;15.40;96.50;;;;;;5066060;28;20032;-95
2022/09/01 00:55:17;;;;;;;2.78;0.50;;;15.40;96.70;;;;;;5065915;28;20029;-95
2022/09/01 00:57:44;;;;;;;2.40;0.38;;;15.40;96.80;;;;;;5060766;28;20049;-94
2022/09/01 01:00:14;;;;;;;1.52;0.50;;;15.40;97.00;;;;;;5070730;28;20052;-94
2022/09/01 01:02:40;;;;;;;1.48;0.47;;;15.30;97.30;;;;;;5074537;28;20025;-94
2022/09/01 01:05:06;;;;;;;1.15;0.30;;;15.30;97.40;;;;;;5070384;28;20052;-94
2022/09/01 01:07:37;;;;;;;1.45;0.47;;;15.20;97.60;;;;;;5057320;28;20377;-94
2022/09/01 01:10:05;;;;;;;4.90;0.40;;;15.20;97.70;;;;;;5073020;28;20555;-94
2022/09/01 01:12:32;;;;;;;2.05;0.40;;;15.20;97.90;;;;;;5064622;28;20044;-94
2022/09/01 01:14:57;;;;;;;1.42;0.43;;;15.10;98.00;;;;;;5066680;28;20119;-95
2022/09/01 01:17:23;;;;;;;1.40;0.50;;;15.00;98.20;;;;;;5071918;28;20056;-95
2022/09/01 01:23:01;;;;;;;1.10;0.30;;;15.00;98.60;;;;;;5074568;28;20086;-95
2022/09/01 01:25:36;;;;;;;1.10;0.40;;;14.90;98.70;;;;;;5065483;28;20036;-94
2022/09/01 01:28:11;;;;;;;1.75;0.50;;;14.90;98.90;;;;;;5066286;28;20020;-94
2022/09/01 01:30:40;;;;;;;2.20;0.40;;;14.80;99.00;;;;;;5087758;28;20484;-95
2022/09/01 01:33:06;;;;;;;3.58;0.60;;;14.80;99.20;;;;;;5072562;28;20040;-96
2022/09/01 01:35:33;;;;;;;1.27;0.40;;;14.80;99.40;;;;;;5073608;28;20024;-94
2022/09/01 01:38:01;;;;;;;4.03;0.70;;;14.80;99.60;;;;;;5068636;28;20043;-95
2022/09/01 01:40:28;;;;;;;0.70;0.30;;;14.70;99.70;;;;;;5070324;28;20025;-94
2022/09/01 01:42:56;;;;;;;1.63;0.50;;;14.70;99.90;;;;;;5073940;28;20029;-94
2022/09/01 01:45:23;;;;;;;2.13;0.50;;;14.60;99.90;;;;;;5074074;28;20024;-94
2022/09/01 01:47:54;;;;;;;3.63;0.50;;;14.60;99.90;;;;;;5072699;28;20472;-94
2022/09/01 01:50:26;;;;;;;4.35;0.57;;;14.60;99.90;;;;;;5072532;28;20490;-95
2022/09/01 01:52:53;;;;;;;;;;;14.50;99.90;;;;;;5074823;28;20515;-95
2022/09/01 01:55:22;;;;;;;5.95;0.50;;;14.50;99.90;;;;;;5053918;28;19912;-95
2022/09/01 01:57:48;;;;;;;3.47;0.55;;;14.50;99.90;;;;;;5053443;28;20061;-93
2022/09/01 02:00:19;;;;;;;2.10;0.73;;;14.50;99.90;;;;;;5069986;28;20017;-93
2022/09/01 02:02:51;;;;;;;1.88;0.60;;;14.50;99.90;;;;;;5073748;28;20029;-94
2022/09/01 02:05:32;;;;;;;4.97;0.60;;;14.50;99.90;;;;;;5079957;28;20040;-94
2022/09/01 02:08:03;;;;;;;5.60;0.45;;;14.50;99.90;;;;;;5076818;28;20090;-93
2022/09/01 02:10:50;;;;;;;2.27;0.80;;;14.60;99.90;;;;;;5072211;28;20113;-94
2022/09/01 02:13:17;;;;;;;2.20;0.52;;;14.60;99.90;;;;;;5072981;28;20408;-93
2022/09/01 02:15:54;;;;;;;4.43;0.50;;;14.60;99.90;;;;;;5067221;28;20035;-94
2022/09/01 02:18:23;;;;;;;2.75;0.60;;;14.60;99.90;;;;;;5069635;28;20029;-95
2022/09/01 02:20:50;;;;;;;2.85;1.02;;;14.60;99.90;;;;;;5065328;28;20025;-95
2022/09/01 02:23:22;;;;;;;2.70;0.60;;;14.60;99.90;;;;;;5074616;28;20029;-94
2022/09/01 02:25:49;;;;;;;4.35;0.82;;;14.60;99.90;;;;;;5072317;28;20028;-94
2022/09/01 02:28:18;;;;;;;2.28;1.00;;;14.60;99.90;;;;;;5068899;28;20021;-94
2022/09/01 02:30:48;;;;;;;2.15;0.68;;;14.70;99.90;;;;;;5070611;28;20026;-94
2022/09/01 02:33:17;;;;;;;1.80;0.60;;;14.70;99.90;;;;;;5058077;28;20071;-94
2022/09/01 02:35:48;;;;;;;1.88;0.60;;;14.70;99.90;;;;;;5072501;28;20465;-94
2022/09/01 02:38:16;;;;;;;4.70;0.95;;;14.70;99.90;;;;;;5072203;28;20459;-94
2022/09/01 02:40:45;;;;;;;2.83;0.85;;;14.80;99.90;;;;;;5067581;28;20031;-94
2022/09/01 02:43:12;;;;;;;2.33;0.47;;;14.90;99.90;;;;;;5072077;28;20082;-93
2022/09/01 02:45:41;;;;;;;1.60;0.50;;;14.90;99.90;;;;;;5064108;28;20120;-95
2022/09/01 02:48:08;;;;;;;2.92;0.57;;;14.90;99.90;;;;;;5082810;28;20115;-96
2022/09/01 02:50:34;;;;;;;2.58;0.50;;;14.90;99.90;;;;;;5058809;28;20046;-95
2022/09/01 02:53:00;;;;;;;3.00;0.65;;;14.90;99.90;;;;;;5067361;28;20029;-94
2022/09/01 02:55:26;;;;;;;2.00;0.50;;;15.00;99.90;;;;;;5061208;28;20033;-94
2022/09/01 02:57:55;;;;;;;8.90;0.60;;;14.90;99.90;;;;;;5062065;28;20032;-95
2022/09/01 03:00:27;;;;;;;1.55;0.50;;;15.00;99.90;;;;;;5072207;28;20032;-94
2022/09/01 03:02:56;;;;;;;5.35;0.60;;;14.90;99.90;;;;;;5070700;28;20127;-95
2022/09/01 03:05:25;;;;;;;1.20;0.63;;;14.90;99.90;;;;;;5072814;28;20124;-95
2022/09/01 03:08:09;;;;;;;3.20;0.47;;;14.90;99.90;;;;;;5071879;28;20029;-94
2022/09/01 03:10:40;;;;;;;2.85;0.57;;;14.90;99.90;;;;;;5071532;28;20025;-95
2022/09/01 03:13:11;;;;;;;1.17;0.50;;;14.80;99.90;;;;;;5068846;28;20060;-94
2022/09/01 03:15:37;;;;;;;2.67;0.70;;;14.80;99.90;;;;;;5061404;28;20117;-94
2022/09/01 03:18:04;;;;;;;3.42;0.50;;;14.70;99.90;;;;;;5064413;28;20032;-94
2022/09/01 03:20:32;;;;;;;3.53;0.60;;;14.70;99.90;;;;;;5070602;28;20024;-94
2022/09/01 03:22:59;;;;;;;1.88;0.50;;;14.70;99.90;;;;;;5072003;28;20063;-95
2022/09/01 03:25:26;;;;;;;2.05;0.50;;;14.60;99.90;;;;;;5073441;28;20032;-94
2022/09/01 03:27:52;;;;;;;3.83;0.70;;;14.50;99.90;;;;;;5063488;28;20024;-95
2022/09/01 03:30:18;;;;;;;3.47;0.50;;;14.60;99.90;;;;;;5070145;28;20047;-95
2022/09/01 03:32:46;;;;;;;1.77;0.70;;;14.50;99.90;;;;;;5068470;28;20037;-94
2022/09/01 03:35:11;;;;;;;1.63;0.50;;;14.50;99.90;;;;;;5070164;28;20467;-94
2022/09/01 03:37:38;;;;;;;1.48;0.60;;;14.40;99.90;;;;;;5067770;28;20107;-94
2022/09/01 03:40:07;;;;;;;1.23;0.50;;;14.40;99.90;;;;;;5072007;28;20496;-94
2022/09/01 03:42:34;;;;;;;1.73;0.50;;;14.50;99.90;;;;;;5070080;28;20032;-94
2022/09/01 03:45:08;;;;;;;2.85;0.70;;;14.40;99.90;;;;;;5071899;28;20115;-94
2022/09/01 03:47:40;;;;;;;2.00;0.60;;;14.40;99.90;;;;;;5073133;28;20487;-94
2022/09/01 03:50:19;;;;;;;2.55;0.55;;;14.40;99.90;;;;;;5070860;28;20082;-95
2022/09/01 03:53:05;;;;;;;3.75;0.60;;;14.50;99.90;;;;;;5071375;28;20043;-94
2022/09/01 03:55:33;;;;;;;1.45;0.70;;;14.40;99.90;;;;;;5067841;28;20021;-95
2022/09/01 03:58:05;;;;;;;1.67;0.55;;;14.40;99.90;;;;;;5071679;28;20033;-94
2022/09/01 04:00:34;;;;;;;2.85;0.70;;;14.40;99.90;;;;;;5063738;28;20020;-94
2022/09/01 04:03:04;;;;;;;4.95;0.65;;;14.40;99.90;;;;;;5054441;28;20060;-93
2022/09/01 04:05:34;;;;;;;1.25;0.50;;;14.30;99.90;;;;;;5074053;28;20040;-94
2022/09/01 04:08:05;;;;;;;4.57;0.60;;;14.30;99.90;;;;;;5073583;28;20124;-96
2022/09/01 04:10:33;;;;;;;3.15;0.60;;;14.30;99.90;;;;;;5064435;28;20027;-95
2022/09/01 04:13:00;;;;;;;6.10;0.80;;;14.20;99.90;;;;;;5066683;28;20514;-95
2022/09/01 04:15:27;;;;;;;2.15;0.65;;;14.20;99.90;;;;;;5063855;28;20056;-94
2022/09/01 04:18:09;;;;;;;1.83;0.60;;;14.20;99.90;;;;;;5079069;28;20548;-95
2022/09/01 04:20:48;;;;;;;1.92;0.50;;;14.10;99.90;;;;;;5078192;28;20031;-95
2022/09/01 04:23:29;;;;;;;3.90;0.75;;;14.10;99.90;;;;;;5072752;28;20036;-94
2022/09/01 04:25:58;;;;;;;1.73;0.60;;;14.10;99.90;;;;;;5071370;28;20078;-95
2022/09/01 04:28:30;;;;;;;2.53;0.50;;;14.20;99.90;;;;;;5063112;28;20524;-94
2022/09/01 04:30:57;;;;;;;2.60;0.55;;;14.20;99.90;;;;;;5069874;28;20033;-95
2022/09/01 04:33:35;;;;;;;1.33;0.50;;;14.20;99.90;;;;;;5071975;28;20120;-94
2022/09/01 04:36:02;;;;;;;2.00;0.45;;;14.30;99.90;;;;;;5070717;28;20056;-94
2022/09/01 04:38:28;;;;;;;3.63;0.73;;;14.30;99.90;;;;;;5070196;28;20024;-95
2022/09/01 04:40:56;;;;;;;1.33;0.50;;;14.30;99.90;;;;;;5070847;28;20035;-95
2022/09/01 04:43:22;;;;;;;1.90;0.50;;;14.20;99.90;;;;;;5087715;28;20008;-95
2022/09/01 04:45:52;;;;;;;2.15;0.60;;;14.30;99.90;;;;;;5071650;28;20025;-95
2022/09/01 04:48:20;;;;;;;1.33;0.60;;;14.20;99.90;;;;;;5066956;28;20021;-93
2022/09/01 04:50:48;;;;;;;2.53;0.60;;;14.10;99.90;;;;;;5066147;28;20033;-95
2022/09/01 04:53:17;;;;;;;2.03;0.93;;;14.10;99.90;;;;;;5063823;28;20048;-94
2022/09/01 04:55:43;;;;;;;3.92;0.60;;;14.10;99.90;;;;;;5066753;28;20039;-95
2022/09/01 04:58:16;;;;;;;2.13;0.60;;;14.00;99.90;;;;;;5073274;28;20032;-95
2022/09/01 05:00:47;;;;;;;4.75;1.00;;;14.00;99.90;;;;;;5073950;28;20033;-95
2022/09/01 05:03:14;;;;;;;1.95;0.47;;;13.90;99.90;;;;;;5060417;28;20029;-95
2022/09/01 05:05:43;;;;;;;1.63;0.50;;;13.80;99.90;;;;;;5062051;28;20511;-95
2022/09/01 05:08:13;;;;;;;1.92;0.70;;;13.80;99.90;;;;;;5071253;28;20479;-95
2022/09/01 05:10:45;;;;;;;1.67;0.68;;;13.70;99.90;;;;;;5080742;28;20487;-94
2022/09/01 05:13:21;;;;;;;3.00;0.55;;;13.70;99.90;;;;;;5069230;28;20033;-94
2022/09/01 05:15:58;;;;;;;2.28;0.70;;;13.70;99.90;;;;;;5073968;28;20036;-94
2022/09/01 05:18:24;;;;;;;3.00;0.90;;;13.60;99.90;;;;;;5074985;28;20056;-96
2022/09/01 05:20:51;;;;;;;3.35;0.75;;;13.60;99.90;;;;;;5065009;28;20029;-94
2022/09/01 05:23:20;;;;;;;3.83;0.75;;;13.60;99.90;;;;;;5066279;28;20029;-94
2022/09/01 05:25:53;;;;;;;2.78;0.70;;;13.70;99.90;;;;;;5076502;28;20035;-96
2022/09/01 05:28:23;;;;;;;2.63;0.70;;;13.70;99.90;;;;;;5081458;28;20050;-94
2022/09/01 05:30:52;;;;;;;2.15;0.70;;;13.70;99.90;;;;;;5083521;28;20028;-96
2022/09/01 05:33:20;;;;;;;1.25;0.70;;;13.70;99.90;;;;;;5084451;28;20044;-95
2022/09/01 05:35:54;;;;;;;1.08;0.60;;;13.70;99.90;;;;;;5082786;28;20035;-95
2022/09/01 05:38:21;;;;;;;3.38;0.80;;;13.80;99.90;;;;;;5078895;28;20092;-95
2022/09/01 05:40:57;;;;;;;2.63;1.00;;;13.80;99.90;;;;;;5073650;28;20028;-96
2022/09/01 05:43:26;;;;;;;4.43;0.52;;;13.80;99.90;;;;;;5072402;28;20362;-95
2022/09/01 05:45:53;;;;;;;2.90;0.60;;;13.80;99.90;;;;;;5079221;28;20051;-96
2022/09/01 05:48:20;;;;;;;1.75;0.70;;;13.80;99.90;;;;;;5078814;28;20035;-96
2022/09/01 05:50:48;;;;;;;5.20;1.35;;;13.90;99.90;;;;;;5073147;28;20448;-95
2022/09/01 05:53:17;;;;;;;6.60;0.93;;;14.00;99.90;;;;;;5085522;28;20033;-96
2022/09/01 05:55:47;;;;;;;3.38;0.60;;;14.00;99.90;;;;;;5059014;28;20047;-96
2022/09/01 05:58:15;;;;;;;1.55;0.70;;;14.10;99.90;;;;;;5086254;28;20019;-96
2022/09/01 06:00:48;;;;;;;2.55;0.60;;;14.20;99.90;;;;;;5088786;28;20025;-94
2022/09/01 06:03:16;;;;;;;6.00;0.68;;;14.30;99.90;;;;;;5082487;28;20055;-96
2022/09/01 06:05:51;;;;;;;2.30;0.60;;;14.50;99.90;;;;;;5073620;28;20044;-95
2022/09/01 06:08:23;;;;;;;4.90;0.63;;;14.70;99.90;;;;;;5074433;28;20020;-95
2022/09/01 06:10:50;;;;;;;2.53;0.60;;;14.90;99.90;;;;;;5074790;28;20063;-95
2022/09/01 06:13:20;;;;;;;2.83;0.50;;;15.10;99.90;;;;;;5067668;28;20096;-96
2022/09/01 06:15:49;;;;;;;2.60;0.50;;;15.30;99.50;;;;;;5074547;28;20024;-96
2022/09/01 06:18:16;;;;;;;2.03;0.60;;;15.40;99.10;;;;;;5066658;28;20504;-95
2022/09/01 06:20:45;;;;;;;4.82;0.77;;;15.60;98.60;;;;;;5075450;28;20029;-96
2022/09/01 06:23:13;;;;;;;4.35;0.60;;;15.70;98.30;;;;;;5065604;28;20469;-95
2022/09/01 06:26:07;;;;;;;2.17;0.55;;;15.90;98.00;;;;;;5066809;28;20392;-95
2022/09/01 06:28:39;;;;;;;2.67;0.60;;;15.90;97.40;;;;;;5066141;28;20031;-95
2022/09/01 06:31:06;;;;;;;1.30;0.50;;;16.10;97.00;;;;;;5070677;28;20551;-94
2022/09/01 06:33:32;;;;;;;4.25;0.60;;;16.20;96.40;;;;;;5062738;28;20037;-95
2022/09/01 06:36:02;;;;;;;1.75;0.60;;;16.30;96.30;;;;;;5073949;28;20028;-93
2022/09/01 06:38:28;;;;;;;4.75;0.50;;;16.30;95.80;;;;;;5066787;28;20028;-95
2022/09/01 06:41:03;;;;;;;1.63;0.50;;;16.40;95.60;;;;;;5067897;28;20033;-94
2022/09/01 06:43:29;;;;;;;2.08;0.40;;;16.50;95.50;;;;;;5060541;28;20495;-95
2022/09/01 06:45:56;;;;;;;3.33;0.40;;;16.60;95.50;;;;;;5073070;28;20032;-94
2022/09/01 06:48:22;;;;;;;1.80;0.40;;;16.70;95.40;;;;;;5071978;28;20055;-93
2022/09/01 06:50:48;;;;;;;3.50;1.05;;;16.80;95.00;;;;;;5072827;28;20550;-95
2022/09/01 06:53:20;;;;;;;3.38;0.80;;;17.00;94.50;;;;;;5070214;28;20497;-93
2022/09/01 06:55:48;;;;;;;1.85;0.30;;;17.20;94.40;;;;;;5074641;28;20025;-94
2022/09/01 06:58:14;;;;;;;2.85;0.40;;;17.40;94.00;;;;;;5072414;28;20032;-95
2022/09/01 07:00:41;;;;;;;2.45;0.40;;;17.60;93.70;;;;;;5068648;28;20047;-95
2022/09/01 07:03:12;;;;;;;2.55;0.40;;;17.70;93.40;;;;;;5076117;28;20054;-95
2022/09/01 07:05:46;;;;;;;1.60;0.40;;;17.90;93.10;;;;;;5077553;28;20128;-96
2022/09/01 07:08:20;;;;;;;1.65;0.40;;;17.90;92.40;;;;;;5073125;28;20408;-93
2022/09/01 07:10:48;;;;;;;2.15;0.40;;;18.00;92.30;;;;;;5068853;28;20384;-95
2022/09/01 07:13:18;;;;;;;2.72;0.50;;;18.10;92.30;;;;;;5078695;28;20046;-95
2022/09/01 07:15:47;;;;;;;1.45;0.40;;;18.20;92.00;;;;;;5074066;28;20028;-95
2022/09/01 07:18:16;;;;;;;1.90;0.50;;;18.30;91.70;;;;;;5076967;28;20128;-96
2022/09/01 07:20:43;;;;;;;3.05;0.47;;;18.30;91.50;;;;;;5073214;28;20533;-94
2022/09/01 07:23:10;;;;;;;1.63;0.40;;;18.40;91.40;;;;;;5076627;28;20009;-95
2022/09/01 07:25:42;;;;;;;1.35;0.40;;;18.50;91.40;;;;;;5067314;28;21114;-96
2022/09/01 07:28:09;;;;;;;1.42;0.30;;;18.50;90.90;;;;;;5075740;28;20058;-94
2022/09/01 07:30:41;;;;;;;3.60;0.50;;;18.50;91.00;;;;;;5070803;28;20041;-94
2022/09/01 07:33:10;;;;;;;1.50;0.40;;;18.60;90.80;;;;;;5073746;28;20040;-93
2022/09/01 07:35:37;;;;;;;2.78;0.50;;;18.70;90.60;;;;;;5071665;28;20029;-94
2022/09/01 07:38:08;;;;;;;2.17;0.50;;;18.80;90.50;;;;;;5072851;28;20503;-94
2022/09/01 07:40:37;;;;;;;3.45;0.50;;;18.90;90.00;;;;;;5069740;28;20048;-94
2022/09/01 07:43:07;;;;;;;3.15;0.40;;;19.00;89.80;;;;;;5072607;28;20043;-95
2022/09/01 07:45:35;;;;;;;1.20;0.40;;;19.10;89.40;;;;;;5071739;28;20086;-94
2022/09/01 07:48:05;;;;;;;1.50;0.40;;;19.20;89.10;;;;;;5081240;28;20034;-95
2022/09/01 07:50:36;;;;;;;1.83;0.70;;;19.40;88.80;;;;;;5055176;28;20032;-93
2022/09/01 07:53:03;;;;;;;1.33;0.30;;;19.50;88.30;;;;;;5069513;28;20567;-95
2022/09/01 07:55:30;;;;;;;1.60;0.40;;;19.60;88.00;;;;;;5063640;28;20029;-94
2022/09/01 07:57:58;;;;;;;3.95;0.30;;;19.70;87.00;;;;;;5060392;28;20028;-96
2022/09/01 08:00:23;;;;;;;1.52;0.43;;;19.70;86.00;;;;;;5068399;28;20032;-94
2022/09/01 08:02:51;;;;;;;2.33;0.38;;;19.80;84.90;;;;;;5072580;28;20033;-95
2022/09/01 08:05:21;;;;;;;2.60;0.40;;;19.70;85.00;;;;;;5071864;28;20048;-94
2022/09/01 08:07:48;;;;;;;1.80;0.30;;;19.80;84.40;;;;;;5070608;28;20028;-96
2022/09/01 08:10:14;;;;;;;0.63;0.30;;;19.90;83.80;;;;;;5064542;28;20030;-94
2022/09/01 08:12:40;;;;;;;1.52;0.30;;;19.90;83.60;;;;;;5072385;28;20036;-94
2022/09/01 08:15:07;;;;;;;2.88;0.40;;;20.00;83.10;;;;;;5073936;28;20543;-95
2022/09/01 08:17:33;;;;;;;1.98;0.30;;;20.10;82.80;;;;;;5072849;28;20551;-95
2022/09/01 08:19:59;;;;;;;2.60;0.30;;;20.20;82.70;;;;;;5068743;28;20064;-94
2022/09/01 08:22:25;;;;;;;1.20;0.30;;;20.30;82.30;;;;;;5071548;28;20477;-96
2022/09/01 08:24:51;;;;;;;2.55;0.50;;;20.40;82.00;;;;;;5071760;28;20060;-95
2022/09/01 08:27:17;;;;;;;0.75;0.20;;;20.50;81.60;;;;;;5067790;28;20500;-94
2022/09/01 08:29:43;;;;;;;2.33;0.30;;;20.60;81.70;;;;;;5068556;28;20147;-94
2022/09/01 08:32:10;;;;;;;1.10;0.30;;;20.70;80.50;;;;;;5071442;28;20037;-95
2022/09/01 08:34:36;;;;;;;1.20;0.22;;;20.70;80.50;;;;;;5071954;28;20107;-94
2022/09/01 08:37:03;;;;;;;3.72;0.30;;;20.80;80.80;;;;;;5065858;28;20036;-95
2022/09/01 08:39:29;;;;;;;3.42;0.45;;;20.90;79.40;;;;;;5068385;28;20119;-94
2022/09/01 08:42:17;;;;;;;1.33;0.30;;;20.90;78.70;;;;;;5072190;28;20064;-95
2022/09/01 08:44:58;;;;;;;1.60;0.20;;;21.00;78.40;;;;;;5071882;28;20040;-95
2022/09/01 08:47:24;;;;;;;2.37;0.20;;;21.00;78.10;;;;;;5075984;28;20049;-96
2022/09/01 08:49:50;;;;;;;3.83;0.30;;;21.10;77.50;;;;;;5073894;28;20092;-94
2022/09/01 08:52:26;;;;;;;1.90;0.32;;;21.10;77.40;;;;;;5074835;28;20350;-94
2022/09/01 08:55:07;;;;;;;2.35;0.22;;;21.30;77.60;;;;;;5071346;28;20652;-95
2022/09/01 08:57:38;;;;;;;2.72;0.30;;;21.40;76.80;;;;;;5077392;28;20078;-94
2022/09/01 09:00:08;;;;;;;3.95;0.40;;;21.50;76.70;;;;;;5078313;28;20059;-95
2022/09/01 09:03:12;;;;;;;2.15;0.30;;;21.50;76.50;;;;;;5075614;28;20119;-94
2022/09/01 09:06:10;;;;;;;1.95;0.20;;;21.60;76.00;;;;;;5075705;28;20072;-94
2022/09/01 09:08:41;;;;;;;9.68;0.50;;;21.80;75.00;;;;;;5072657;28;20029;-95
2022/09/01 09:11:20;;;;;;;2.42;0.30;;;21.90;74.60;;;;;;5077000;28;20032;-96
2022/09/01 09:14:17;;;;;;;1.70;0.22;;;21.90;73.50;;;;;;5062832;28;20043;-94
2022/09/01 09:16:55;;;;;;;2.47;0.20;;;22.00;73.50;;;;;;5070865;28;20039;-95
2022/09/01 09:19:33;;;;;;;0.95;0.20;;;22.20;73.50;;;;;;5077245;28;20044;-94
2022/09/01 09:22:02;;;;;;;1.73;0.30;;;22.30;73.10;;;;;;5075793;28;20032;-95
2022/09/01 09:24:51;;;;;;;4.35;0.20;;;22.40;72.50;;;;;;5067142;28;20366;-95
2022/09/01 09:27:32;;;;;;;0.70;0.17;;;22.40;71.50;;;;;;5076705;28;20028;-94
2022/09/01 09:30:12;;;;;;;1.63;0.38;;;22.60;71.60;;;;;;5069539;28;20121;-96
2022/09/01 09:32:42;;;;;;;1.00;0.20;;;22.60;70.80;;;;;;5065103;28;20036;-94
2022/09/01 09:35:35;;;;;;;2.45;0.30;;;22.70;70.10;;;;;;5072654;28;20025;-95
2022/09/01 09:38:19;;;;;;;3.72;0.22;;;22.80;69.80;;;;;;5077341;28;20480;-95
2022/09/01 09:40:56;;;;;;;0.70;0.20;;;22.90;69.20;;;;;;5077723;28;20078;-93
2022/09/01 09:43:22;;;;;;;4.93;0.30;;;22.90;68.30;;;;;;5075376;28;20104;-95
2022/09/01 09:45:48;;;;;;;2.60;0.20;;;22.90;67.70;;;;;;5073632;28;20025;-94
2022/09/01 09:48:28;;;;;;;1.73;0.20;;;22.80;67.40;;;;;;5078005;28;20024;-95
2022/09/01 09:50:54;;;;;;;4.63;0.22;;;22.70;67.20;;;;;;5072631;28;20392;-94
2022/09/01 09:53:31;;;;;;;1.05;0.20;;;22.80;67.40;;;;;;5074760;28;20101;-93
2022/09/01 09:56:14;;;;;;;1.58;0.20;;;22.90;67.00;;;;;;5072989;28;20519;-96
2022/09/01 09:58:42;;;;;;;2.85;0.20;;;23.00;66.30;;;;;;5070958;28;20389;-96
2022/09/01 10:01:34;;;;;;;4.25;0.20;;;23.10;65.70;;;;;;5069991;28;20480;-95
2022/09/01 10:04:02;;;;;;;0.47;0.10;;;23.20;64.20;;;;;;5066679;28;20090;-95
2022/09/01 10:06:34;;;;;;;0.80;0.20;;;23.20;63.30;;;;;;5077548;28;20048;-94
2022/09/01 10:09:14;;;;;;;1.10;0.20;;;23.30;62.70;;;;;;5075065;28;20032;-93
2022/09/01 10:11:42;;;;;;;2.13;0.20;;;23.40;63.00;;;;;;5064940;28;20485;-94
2022/09/01 10:14:20;;;;;;;1.40;0.10;;;23.40;61.50;;;;;;5075270;28;20033;-95
2022/09/01 10:16:53;;;;;;;0.30;0.10;;;23.40;60.30;;;;;;5075743;28;20551;-94
2022/09/01 10:19:19;;;;;;;2.13;0.20;;;23.40;59.80;;;;;;5066356;28;20029;-95
2022/09/01 10:21:45;;;;;;;1.70;0.20;;;23.50;59.70;;;;;;5066635;28;20020;-94
2022/09/01 10:24:34;;;;;;;1.63;0.20;;;23.60;59.20;;;;;;5074878;28;20065;-94
2022/09/01 10:27:06;;;;;;;0.93;0.20;;;23.70;58.20;;;;;;5072010;28;20154;-95
2022/09/01 10:29:39;;;;;;;0.73;0.20;;;23.70;57.80;;;;;;5073186;28;20040;-95
2022/09/01 10:32:09;;;;;;;2.28;0.20;;;23.60;56.90;;;;;;5054618;28;20623;-95
2022/09/01 10:34:37;;;;;;;2.08;0.20;;;23.60;57.10;;;;;;5072833;28;20056;-95
2022/09/01 10:37:05;;;;;;;1.63;0.20;;;23.70;57.20;;;;;;5075516;28;20016;-95
2022/09/01 10:39:30;;;;;;;3.05;0.20;;;23.80;56.80;;;;;;5076932;28;20090;-93
2022/09/01 10:42:07;;;;;;;0.30;0.10;;;23.80;56.70;;;;;;5074094;28;20024;-95
2022/09/01 10:44:54;;;;;;;4.75;0.20;;;23.90;55.90;;;;;;5073598;28;20052;-95
2022/09/01 10:47:32;;;;;;;2.30;0.20;;;23.90;55.80;;;;;;5066699;28;20449;-95
2022/09/01 10:50:03;;;;;;;0.90;0.20;;;23.90;55.90;;;;;;5073752;28;20091;-93
2022/09/01 10:52:41;;;;;;;0.60;0.20;;;24.00;55.90;;;;;;5076643;28;20043;-95
2022/09/01 10:55:09;;;;;;;1.33;0.10;;;24.10;54.40;;;;;;5076203;28;20048;-95
2022/09/01 10:57:45;;;;;;;0.60;0.03;;;24.10;54.30;;;;;;5072290;28;20017;-95
2022/09/01 11:00:34;;;;;;;1.17;0.20;;;24.10;54.60;;;;;;5073095;28;20035;-95
2022/09/01 11:03:12;;;;;;;3.42;0.10;;;24.30;54.80;;;;;;5068268;28;20067;-94
2022/09/01 11:05:53;;;;;;;2.53;0.20;;;24.50;54.00;;;;;;5065862;28;20071;-96
2022/09/01 11:08:44;;;;;;;2.35;0.20;;;24.50;53.00;;;;;;5083083;28;20495;-94
2022/09/01 11:11:47;;;;;;;1.65;0.10;;;24.40;52.90;;;;;;5065067;28;20054;-96
2022/09/01 11:14:20;;;;;;;1.95;0.20;;;24.50;52.10;;;;;;5073832;28;20048;-93
2022/09/01 11:17:24;;;;;;;1.38;0.10;;;24.40;51.60;;;;;;5072936;28;20035;-96
2022/09/01 11:20:07;;;;;;;0.45;0.10;;;24.50;51.40;;;;;;5077998;28;20073;-95
2022/09/01 11:22:43;;;;;;;1.70;0.20;;;24.50;50.10;;;;;;5066824;28;20033;-96
2022/09/01 11:25:27;;;;;;;3.03;0.20;;;24.50;50.40;;;;;;5069826;28;20484;-96
2022/09/01 11:27:52;;;;;;;1.55;0.10;;;24.50;50.90;;;;;;5082527;28;20025;-96
2022/09/01 11:30:36;;;;;;;1.08;0.10;;;24.50;50.10;;;;;;5075084;28;20051;-96
2022/09/01 11:33:15;;;;;;;0.95;0.10;;;24.60;50.50;;;;;;5069436;28;20043;-95
2022/09/01 11:35:43;;;;;;;1.65;0.20;;;24.60;50.60;;;;;;5072312;28;20503;-94
2022/09/01 11:38:14;;;;;;;0.85;0.15;;;24.60;50.70;;;;;;5075372;28;20024;-95
2022/09/01 11:40:39;;;;;;;1.65;0.10;;;24.70;50.40;;;;;;5070995;28;20024;-96
2022/09/01 11:43:13;;;;;;;1.35;0.20;;;24.70;50.30;;;;;;5077117;28;20482;-94
2022/09/01 11:46:11;;;;;;;1.40;0.20;;;24.70;50.10;;;;;;5061457;28;20067;-94
2022/09/01 11:48:38;;;;;;;1.55;0.10;;;24.70;50.20;;;;;;5069387;28;20146;-95
2022/09/01 11:51:05;;;;;;;2.63;0.30;;;24.80;50.70;;;;;;5072394;28;20094;-95
2022/09/01 11:53:31;;;;;;;2.10;0.10;;;24.80;50.90;;;;;;5076942;28;20127;-95
2022/09/01 11:56:16;;;;;;;1.65;0.15;;;24.90;50.40;;;;;;5079283;28;20060;-95
2022/09/01 11:58:42;;;;;;;1.70;0.50;;;24.90;50.70;;;;;;5060547;28;20032;-95
2022/09/01 12:01:20;;;;;;;0.30;0.10;;;25.00;50.70;;;;;;5073400;28;20063;-96
2022/09/01 12:03:49;;;;;;;2.90;0.17;;;25.00;50.00;;;;;;5064016;28;20028;-95
2022/09/01 12:06:23;;;;;;;1.60;0.10;;;25.10;49.60;;;;;;5071224;28;20048;-95
2022/09/01 12:09:00;;;;;;;1.20;0.10;;;25.00;49.70;;;;;;5072311;28;20056;-93
2022/09/01 12:11:30;;;;;;;0.28;0.10;;;25.00;49.80;;;;;;5071023;28;20021;-93
2022/09/01 12:14:01;;;;;;;2.35;0.20;;;25.00;49.90;;;;;;5075199;28;20167;-93
2022/09/01 12:16:28;;;;;;;2.28;0.10;;;25.00;49.60;;;;;;5071210;28;20020;-93
2022/09/01 12:18:57;;;;;;;3.17;0.40;;;24.90;49.90;;;;;;5073255;28;20040;-95
2022/09/01 12:21:44;;;;;;;1.10;0.10;;;24.90;49.70;;;;;;5075394;28;20034;-94
2022/09/01 12:24:16;;;;;;;1.83;0.10;;;25.10;49.80;;;;;;5072732;28;20060;-94
2022/09/01 12:26:43;;;;;;;0.93;0.20;;;25.10;49.60;;;;;;5062662;28;20055;-95
2022/09/01 12:29:10;;;;;;;1.13;0.30;;;25.20;49.20;;;;;;5077536;28;20063;-95
2022/09/01 12:31:39;;;;;;;2.33;0.35;;;25.10;49.40;;;;;;5076081;28;20392;-94
2022/09/01 12:34:22;;;;;;;1.98;0.20;;;25.00;49.80;;;;;;5076555;28;20051;-95
2022/09/01 12:37:02;;;;;;;0.85;0.20;;;25.00;49.80;;;;;;5078312;28;20021;-93
2022/09/01 12:39:39;;;;;;;0.52;0.15;;;25.00;49.90;;;;;;5072625;28;20032;-94
2022/09/01 12:42:26;;;;;;;1.02;0.20;;;25.10;50.00;;;;;;5073943;28;20039;-93
2022/09/01 12:45:01;;;;;;;0.70;0.22;;;25.10;49.30;;;;;;5077231;28;20084;-95
2022/09/01 12:47:32;;;;;;;3.22;0.20;;;25.00;49.40;;;;;;5075715;28;20032;-95
2022/09/01 12:50:09;;;;;;;1.88;0.20;;;25.10;49.60;;;;;;5076888;28;20025;-94
2022/09/01 12:52:43;;;;;;;3.05;0.10;;;25.30;49.60;;;;;;5075358;28;20044;-94
2022/09/01 12:55:15;;;;;;;0.30;0.10;;;25.30;48.90;;;;;;5076468;28;20086;-94
2022/09/01 12:57:50;;;;;;;1.92;0.20;;;25.30;49.00;;;;;;5070682;28;20082;-94
2022/09/01 13:00:22;;;;;;;1.70;0.30;;;25.20;48.80;;;;;;5074149;28;20032;-94
2022/09/01 13:02:51;;;;;;;3.03;0.20;;;25.20;49.70;;;;;;5076274;28;20025;-94
2022/09/01 13:05:35;;;;;;;1.25;0.30;;;25.20;48.80;;;;;;5074227;28;20103;-94
2022/09/01 13:08:03;;;;;;;0.73;0.13;;;25.40;48.00;;;;;;5074543;28;20082;-95
2022/09/01 13:10:38;;;;;;;0.88;0.20;;;25.50;48.30;;;;;;5065925;28;20112;-93
2022/09/01 13:13:05;;;;;;;1.75;0.20;;;25.60;47.70;;;;;;5066068;28;20127;-94